createdAt,value
2022-11-16T00:02:10.615Z,98573.03
2022-11-16T00:04:37.415Z,98571.69
2022-11-16T00:07:04.271Z,98593.78
2022-11-16T00:09:32.103Z,98606.09
2022-11-16T00:12:07.101Z,98613.75
2022-11-16T00:14:35.030Z,98602.53
2022-11-16T00:17:02.190Z,98613.31
2022-11-16T00:19:28.991Z,98621.28
2022-11-16T00:21:55.659Z,98623.97
2022-11-16T00:24:23.730Z,98632.75
2022-11-16T00:26:51.251Z,98643.91
2022-11-16T00:29:20.810Z,98649.91
2022-11-16T00:31:48.188Z,98661.59
2022-11-16T00:34:15.463Z,98662.94
2022-11-16T00:36:42.325Z,98665.72
2022-11-16T00:39:11.869Z,98674.44
2022-11-16T00:41:38.637Z,98689.19
2022-11-16T00:44:05.285Z,98687.66
2022-11-16T00:46:31.816Z,98682.97
2022-11-16T00:48:58.425Z,98673.91
2022-11-16T00:51:24.965Z,98680.00
2022-11-16T00:53:51.482Z,98682.47
2022-11-16T00:56:18.101Z,98674.94
2022-11-16T00:58:44.715Z,98661.81
2022-11-16T01:01:11.969Z,98667.59
2022-11-16T01:03:39.122Z,98665.31
2022-11-16T01:06:08.329Z,98655.78
2022-11-16T01:08:36.840Z,98648.19
2022-11-16T01:11:23.430Z,98652.63
2022-11-16T01:13:50.135Z,98659.00
2022-11-16T01:16:18.827Z,98647.31
2022-11-16T01:18:51.194Z,98656.91
2022-11-16T01:21:18.064Z,98668.59
2022-11-16T01:23:44.572Z,98671.28
2022-11-16T01:26:11.117Z,98674.63
2022-11-16T01:28:37.767Z,98665.59
2022-11-16T01:31:04.575Z,98678.94
2022-11-16T01:33:31.138Z,98668.00
2022-11-16T01:35:57.686Z,98657.28
2022-11-16T01:38:28.552Z,98659.25
2022-11-16T01:40:56.357Z,98664.75
2022-11-16T01:43:24.557Z,98665.81
2022-11-16T01:45:51.185Z,98665.28
2022-11-16T01:48:27.761Z,98660.75
2022-11-16T01:50:56.483Z,98649.88
2022-11-16T01:53:24.800Z,98665.72
2022-11-16T01:55:52.230Z,98683.50
2022-11-16T01:58:23.116Z,98685.16
2022-11-16T02:03:26.438Z,98669.91
2022-11-16T02:06:02.900Z,98665.53
2022-11-16T02:08:53.968Z,98668.72
2022-11-16T02:11:33.259Z,98684.50
2022-11-16T02:14:09.074Z,98685.41
2022-11-16T02:17:14.272Z,98676.97
2022-11-16T02:20:00.426Z,98683.91
2022-11-16T02:22:45.007Z,98685.47
2022-11-16T02:25:26.683Z,98677.41
2022-11-16T02:28:13.150Z,98673.81
2022-11-16T02:30:45.534Z,98678.75
2022-11-16T02:33:16.399Z,98678.03
2022-11-16T02:35:45.178Z,98675.63
2022-11-16T02:38:17.425Z,98675.38
2022-11-16T02:40:49.900Z,98680.91
2022-11-16T02:43:26.533Z,98677.91
2022-11-16T02:45:57.083Z,98673.78
2022-11-16T02:48:28.924Z,98671.44
2022-11-16T02:50:56.079Z,98672.03
2022-11-16T02:53:24.335Z,98668.13
2022-11-16T02:55:51.246Z,98661.53
2022-11-16T02:58:21.385Z,98662.16
2022-11-16T03:01:03.295Z,98657.94
2022-11-16T03:03:50.795Z,98656.19
2022-11-16T03:06:22.407Z,98647.41
2022-11-16T03:08:58.332Z,98651.31
2022-11-16T03:11:43.556Z,98651.53
2022-11-16T03:14:16.679Z,98650.78
2022-11-16T03:16:57.169Z,98654.06
2022-11-16T03:19:36.528Z,98655.88
2022-11-16T03:22:05.929Z,98666.28
2022-11-16T03:24:32.729Z,98662.06
2022-11-16T03:27:46.067Z,98659.13
2022-11-16T03:30:23.839Z,98657.94
2022-11-16T03:33:05.897Z,98651.47
2022-11-16T03:35:41.001Z,98647.22
2022-11-16T03:38:10.293Z,98652.34
2022-11-16T03:40:38.532Z,98652.53
2022-11-16T03:43:07.279Z,98656.53
2022-11-16T03:45:34.203Z,98653.63
2022-11-16T03:48:00.846Z,98651.69
2022-11-16T03:50:27.700Z,98647.78
2022-11-16T03:52:54.276Z,98649.53
2022-11-16T03:55:20.837Z,98643.91
2022-11-16T03:57:47.303Z,98646.41
2022-11-16T04:00:14.026Z,98642.31
2022-11-16T04:02:40.610Z,98651.81
2022-11-16T04:05:33.528Z,98654.88
2022-11-16T04:08:18.819Z,98662.03
2022-11-16T04:11:04.382Z,98677.03
2022-11-16T04:13:52.056Z,98672.59
2022-11-16T04:16:37.969Z,98683.34
2022-11-16T04:19:23.184Z,98683.19
2022-11-16T04:22:12.043Z,98678.84
2022-11-16T04:24:41.145Z,98679.59
2022-11-16T04:27:29.734Z,98677.31
2022-11-16T04:29:59.554Z,98678.78
2022-11-16T04:32:45.719Z,98673.34
2022-11-16T04:35:31.125Z,98683.81
2022-11-16T04:37:59.309Z,98686.03
2022-11-16T04:40:30.707Z,98683.88
2022-11-16T04:42:59.596Z,98685.81
2022-11-16T04:45:45.782Z,98680.22
2022-11-16T04:48:14.548Z,98677.72
2022-11-16T04:50:41.328Z,98685.28
2022-11-16T04:53:08.560Z,98692.28
2022-11-16T04:55:35.865Z,98688.16
2022-11-16T04:58:02.884Z,98681.66
2022-11-16T05:00:30.139Z,98693.91
2022-11-16T05:03:00.999Z,98690.59
2022-11-16T05:05:28.374Z,98687.63
2022-11-16T05:07:55.000Z,98684.88
2022-11-16T05:10:21.545Z,98686.41
2022-11-16T05:12:48.140Z,98689.66
2022-11-16T05:15:14.899Z,98693.59
2022-11-16T05:17:41.453Z,98692.13
2022-11-16T05:20:28.342Z,98688.63
2022-11-16T05:22:56.283Z,98691.41
2022-11-16T05:25:23.015Z,98692.84
2022-11-16T05:27:49.936Z,98684.03
2022-11-16T05:30:16.935Z,98678.44
2022-11-16T05:32:44.030Z,98684.72
2022-11-16T05:35:10.733Z,98682.19
2022-11-16T05:37:37.341Z,98675.41
2022-11-16T05:40:04.629Z,98674.94
2022-11-16T05:42:31.234Z,98679.53
2022-11-16T05:44:58.005Z,98669.50
2022-11-16T05:47:24.570Z,98667.44
2022-11-16T05:49:51.240Z,98672.28
2022-11-16T05:52:17.769Z,98664.03
2022-11-16T05:54:44.470Z,98663.22
2022-11-16T05:57:11.113Z,98661.28
2022-11-16T05:59:37.656Z,98675.75
2022-11-16T06:02:04.881Z,98678.31
2022-11-16T06:04:32.624Z,98677.97
2022-11-16T06:06:59.215Z,98681.69
2022-11-16T06:09:25.810Z,98672.97
2022-11-16T06:11:52.376Z,98671.81
2022-11-16T06:14:18.860Z,98678.00
2022-11-16T06:16:45.416Z,98683.56
2022-11-16T06:19:12.106Z,98676.22
2022-11-16T06:21:38.625Z,98671.16
2022-11-16T06:24:09.156Z,98666.69
2022-11-16T06:26:36.639Z,98665.69
2022-11-16T06:29:03.848Z,98658.19
2022-11-16T06:31:30.772Z,98668.47
2022-11-16T06:33:57.402Z,98670.13
2022-11-16T06:36:23.902Z,98673.97
2022-11-16T06:38:50.997Z,98669.53
2022-11-16T06:41:17.649Z,98672.69
2022-11-16T06:43:44.250Z,98669.34
2022-11-16T06:46:10.753Z,98664.38
2022-11-16T06:48:37.691Z,98662.78
2022-11-16T06:51:04.403Z,98667.56
2022-11-16T06:53:30.928Z,98668.88
2022-11-16T06:56:07.213Z,98659.03
2022-11-16T06:58:34.330Z,98660.63
2022-11-16T07:01:09.290Z,98668.53
2022-11-16T07:03:36.032Z,98666.75
2022-11-16T07:06:13.538Z,98680.34
2022-11-16T07:08:40.298Z,98685.41
2022-11-16T07:11:08.961Z,98686.16
2022-11-16T07:13:37.577Z,98691.47
2022-11-16T07:16:05.730Z,98694.63
2022-11-16T07:18:34.400Z,98694.06
2022-11-16T07:21:10.117Z,98693.16
2022-11-16T07:23:36.833Z,98692.53
2022-11-16T07:26:04.874Z,98694.00
2022-11-16T07:28:32.618Z,98699.53
2022-11-16T07:31:08.856Z,98704.59
2022-11-16T07:33:36.657Z,98703.41
2022-11-16T07:36:12.044Z,98705.72
2022-11-16T07:38:39.587Z,98703.31
2022-11-16T07:41:11.357Z,98706.66
2022-11-16T07:43:39.841Z,98705.59
2022-11-16T07:48:57.997Z,98693.16
2022-11-16T07:51:24.894Z,98688.78
2022-11-16T07:53:57.743Z,98687.91
2022-11-16T07:56:25.150Z,98691.84
2022-11-16T07:58:51.976Z,98688.47
2022-11-16T08:01:19.059Z,98692.59
2022-11-16T08:03:46.771Z,98684.38
2022-11-16T08:06:27.837Z,98690.06
2022-11-16T08:08:58.233Z,98686.44
2022-11-16T08:11:25.319Z,98683.41
2022-11-16T08:13:52.148Z,98696.66
2022-11-16T08:16:20.875Z,98696.44
2022-11-16T08:18:47.666Z,98690.00
2022-11-16T08:21:16.298Z,98686.72
2022-11-16T08:23:44.964Z,98689.06
2022-11-16T08:26:15.324Z,98694.50
2022-11-16T08:28:44.154Z,98685.41
2022-11-16T08:31:16.764Z,98688.88
2022-11-16T08:33:43.402Z,98681.09
2022-11-16T08:36:14.400Z,98679.84
2022-11-16T08:38:41.264Z,98678.56
2022-11-16T08:41:08.517Z,98681.38
2022-11-16T08:43:36.127Z,98680.84
2022-11-16T08:46:03.318Z,98678.59
2022-11-16T08:48:30.669Z,98693.28
2022-11-16T08:51:23.778Z,98698.16
2022-11-16T08:53:55.887Z,98699.78
2022-11-16T08:56:23.996Z,98705.69
2022-11-16T08:58:58.197Z,98702.13
2022-11-16T09:01:28.546Z,98699.38
2022-11-16T09:03:55.765Z,98702.09
2022-11-16T09:06:24.339Z,98710.72
2022-11-16T09:08:51.626Z,98711.22
2022-11-16T09:11:21.492Z,98703.97
2022-11-16T09:13:49.459Z,98699.75
2022-11-16T09:16:16.940Z,98688.50
2022-11-16T09:18:44.321Z,98696.75
2022-11-16T09:21:10.832Z,98695.25
2022-11-16T09:23:37.560Z,98688.75
2022-11-16T09:26:05.951Z,98693.53
2022-11-16T09:28:33.048Z,98680.06
2022-11-16T09:31:03.224Z,98687.88
2022-11-16T09:33:31.286Z,98687.59
2022-11-16T09:36:09.707Z,98686.63
2022-11-16T09:39:13.266Z,98685.91
2022-11-16T09:41:41.302Z,98685.13
2022-11-16T09:44:35.490Z,98683.66
2022-11-16T09:47:02.493Z,98687.28
2022-11-16T09:49:33.096Z,98675.66
2022-11-16T09:52:08.535Z,98672.97
2022-11-16T09:54:40.244Z,98668.63
2022-11-16T09:57:12.569Z,98658.41
2022-11-16T09:59:49.808Z,98653.19
2022-11-16T10:02:22.484Z,98646.72
2022-11-16T10:05:15.174Z,98642.16
2022-11-16T10:08:02.869Z,98643.25
2022-11-16T10:10:40.234Z,98649.84
2022-11-16T10:13:10.206Z,98654.28
2022-11-16T10:16:14.411Z,98679.78
2022-11-16T10:19:36.356Z,98698.88
2022-11-16T10:22:44.224Z,98687.03
2022-11-16T10:25:22.472Z,98672.22
2022-11-16T10:28:11.824Z,98675.91
2022-11-16T10:30:43.068Z,98683.59
2022-11-16T10:33:17.107Z,98678.00
2022-11-16T10:35:48.207Z,98680.44
2022-11-16T10:38:19.070Z,98680.34
2022-11-16T10:41:01.689Z,98673.66
2022-11-16T10:43:32.850Z,98670.25
2022-11-16T10:46:06.061Z,98666.09
2022-11-16T10:48:48.740Z,98659.78
2022-11-16T10:51:15.715Z,98660.78
2022-11-16T10:53:44.259Z,98649.31
2022-11-16T10:56:20.354Z,98649.00
2022-11-16T10:58:50.763Z,98640.97
2022-11-16T11:01:42.476Z,98631.22
2022-11-16T11:04:14.301Z,98637.25
2022-11-16T11:06:41.468Z,98619.19
2022-11-16T11:09:34.385Z,98616.94
2022-11-16T11:12:19.634Z,98604.66
2022-11-16T11:15:03.401Z,98605.84
2022-11-16T11:17:31.299Z,98601.59
2022-11-16T11:20:13.064Z,98596.19
2022-11-16T11:22:54.566Z,98593.31
2022-11-16T11:26:00.633Z,98580.72
2022-11-16T11:28:28.842Z,98579.25
2022-11-16T11:31:05.284Z,98580.00
2022-11-16T11:33:41.424Z,98578.69
2022-11-16T11:36:19.040Z,98579.09
2022-11-16T11:39:20.825Z,98569.09
2022-11-16T11:42:00.903Z,98567.53
2022-11-16T11:44:37.764Z,98572.44
2022-11-16T11:50:17.667Z,98549.38
2022-11-16T11:52:53.123Z,98543.84
2022-11-16T11:55:19.793Z,98537.16
2022-11-16T11:57:49.178Z,98542.03
2022-11-16T12:00:18.320Z,98540.50
2022-11-16T12:03:18.561Z,98537.63
2022-11-16T12:06:07.769Z,98523.31
2022-11-16T12:08:46.144Z,98523.88
2022-11-16T12:11:39.129Z,98514.34
2022-11-16T12:14:27.876Z,98508.50
2022-11-16T12:17:10.056Z,98512.75
2022-11-16T12:19:59.509Z,98509.13
2022-11-16T12:22:47.635Z,98500.94
2022-11-16T12:25:49.352Z,98505.78
2022-11-16T12:28:29.527Z,98500.28
2022-11-16T12:30:58.885Z,98502.38
2022-11-16T12:33:37.498Z,98499.03
2022-11-16T12:36:21.431Z,98496.16
2022-11-16T12:38:59.908Z,98500.53
2022-11-16T12:41:26.428Z,98489.19
2022-11-16T12:44:05.362Z,98475.88
2022-11-16T12:46:56.911Z,98466.00
2022-11-16T12:49:35.879Z,98451.97
2022-11-16T12:52:12.149Z,98450.50
2022-11-16T12:55:23.972Z,98436.63
2022-11-16T12:57:51.119Z,98426.25
2022-11-16T13:00:19.813Z,98421.34
2022-11-16T13:03:04.393Z,98411.34
2022-11-16T13:05:40.339Z,98418.38
2022-11-16T13:08:18.240Z,98412.19
2022-11-16T13:10:49.321Z,98409.13
2022-11-16T13:13:37.379Z,98408.75
2022-11-16T13:16:05.681Z,98404.88
2022-11-16T13:18:34.768Z,98408.72
2022-11-16T13:21:07.169Z,98397.22
2022-11-16T13:24:11.059Z,98394.84
2022-11-16T13:26:49.868Z,98399.03
2022-11-16T13:29:27.289Z,98408.59
2022-11-16T13:32:12.673Z,98401.69
2022-11-16T13:34:40.514Z,98394.78
2022-11-16T13:37:38.703Z,98396.06
2022-11-16T13:40:05.227Z,98403.31
2022-11-16T13:42:34.157Z,98397.97
2022-11-16T13:45:09.596Z,98375.84
2022-11-16T13:47:37.464Z,98372.13
2022-11-16T13:50:06.938Z,98361.53
2022-11-16T13:55:44.018Z,98359.19
2022-11-16T13:58:19.996Z,98362.06
2022-11-16T14:00:57.550Z,98367.81
2022-11-16T14:03:30.669Z,98364.94
2022-11-16T14:05:58.582Z,98377.53
2022-11-16T14:08:25.066Z,98363.09
2022-11-16T14:10:51.740Z,98362.41
2022-11-16T14:13:30.467Z,98354.16
2022-11-16T14:16:15.549Z,98358.16
2022-11-16T14:18:46.917Z,98361.72
2022-11-16T14:21:21.980Z,98361.53
2022-11-16T14:23:57.415Z,98362.94
2022-11-16T14:26:28.347Z,98359.06
2022-11-16T14:29:23.339Z,98355.38
2022-11-16T14:31:54.927Z,98356.94
2022-11-16T14:34:41.056Z,98359.56
2022-11-16T14:37:39.314Z,98354.78
2022-11-16T14:40:15.063Z,98348.06
2022-11-16T14:43:15.362Z,98353.00
2022-11-16T14:45:39.604Z,98345.38
2022-11-16T14:48:18.741Z,98348.75
2022-11-16T14:51:07.995Z,98346.03
2022-11-16T14:53:39.203Z,98333.75
2022-11-16T14:56:09.486Z,98328.84
2022-11-16T14:58:36.616Z,98318.03
2022-11-16T15:01:13.120Z,98322.19
2022-11-16T15:03:58.810Z,98315.59
2022-11-16T15:06:27.050Z,98312.66
2022-11-16T15:09:00.572Z,98317.63
2022-11-16T15:12:00.839Z,98317.28
2022-11-16T15:14:32.099Z,98308.69
2022-11-16T15:17:00.379Z,98307.47
2022-11-16T15:19:30.983Z,98313.91
2022-11-16T15:22:00.647Z,98314.19
2022-11-16T15:24:33.519Z,98310.53
2022-11-16T15:27:37.309Z,98307.38
2022-11-16T15:30:23.510Z,98313.47
2022-11-16T15:32:52.351Z,98316.88
2022-11-16T15:35:32.495Z,98311.91
2022-11-16T15:38:06.472Z,98304.47
2022-11-16T15:40:34.554Z,98311.72
2022-11-16T15:43:04.841Z,98306.13
2022-11-16T15:45:32.656Z,98313.72
2022-11-16T15:48:02.017Z,98312.31
2022-11-16T15:50:28.908Z,98312.22
2022-11-16T15:52:56.716Z,98308.94
2022-11-16T15:55:38.877Z,98301.81
2022-11-16T15:58:30.875Z,98300.44
2022-11-16T16:00:59.340Z,98290.22
2022-11-16T16:03:32.936Z,98284.34
2022-11-16T16:06:01.127Z,98272.66
2022-11-16T16:08:39.635Z,98261.56
2022-11-16T16:11:32.452Z,98254.78
2022-11-16T16:14:03.618Z,98252.75
2022-11-16T16:16:38.651Z,98253.78
2022-11-16T16:19:24.316Z,98254.94
2022-11-16T16:21:52.053Z,98254.94
2022-11-16T16:24:47.235Z,98249.75
2022-11-16T16:27:25.274Z,98247.94
2022-11-16T16:29:54.376Z,98249.13
2022-11-16T16:32:32.059Z,98251.13
2022-11-16T16:35:01.633Z,98248.16
2022-11-16T16:37:30.803Z,98244.72
2022-11-16T16:39:58.377Z,98243.75
2022-11-16T16:42:25.324Z,98243.22
2022-11-16T16:44:52.218Z,98246.41
2022-11-16T16:47:22.433Z,98241.84
2022-11-16T16:49:49.441Z,98244.16
2022-11-16T16:52:16.362Z,98243.28
2022-11-16T16:54:43.720Z,98255.59
2022-11-16T16:57:15.210Z,98248.66
2022-11-16T16:59:42.695Z,98244.22
2022-11-16T17:02:13.297Z,98231.78
2022-11-16T17:04:40.437Z,98221.41
2022-11-16T17:07:07.056Z,98226.66
2022-11-16T17:09:33.884Z,98225.53
2022-11-16T17:12:00.411Z,98220.91
2022-11-16T17:14:27.023Z,98222.34
2022-11-16T17:16:53.777Z,98210.13
2022-11-16T17:19:22.639Z,98205.41
2022-11-16T17:21:51.323Z,98189.25
2022-11-16T17:24:17.930Z,98185.38
2022-11-16T17:26:48.307Z,98188.00
2022-11-16T17:29:15.326Z,98199.34
2022-11-16T17:31:45.151Z,98194.41
2022-11-16T17:34:13.809Z,98193.28
2022-11-16T17:36:41.254Z,98194.22
2022-11-16T17:39:07.869Z,98192.50
2022-11-16T17:41:34.496Z,98185.94
2022-11-16T17:44:01.075Z,98185.72
2022-11-16T17:46:29.211Z,98184.88
2022-11-16T17:48:56.167Z,98176.03
2022-11-16T17:51:25.132Z,98170.81
2022-11-16T17:53:52.830Z,98165.22
2022-11-16T17:56:21.676Z,98173.81
2022-11-16T17:58:50.155Z,98185.41
2022-11-16T18:01:17.107Z,98186.97
2022-11-16T18:03:43.653Z,98183.25
2022-11-16T18:06:20.728Z,98184.69
2022-11-16T18:08:47.386Z,98189.75
2022-11-16T18:11:15.917Z,98182.97
2022-11-16T18:13:43.567Z,98187.94
2022-11-16T18:16:12.399Z,98194.97
2022-11-16T18:18:39.873Z,98199.22
2022-11-16T18:21:08.222Z,98187.66
2022-11-16T18:23:36.763Z,98178.91
2022-11-16T18:26:11.501Z,98181.25
2022-11-16T18:28:38.155Z,98173.59
2022-11-16T18:31:08.559Z,98163.06
2022-11-16T18:33:37.197Z,98162.06
2022-11-16T18:36:05.814Z,98167.22
2022-11-16T18:38:32.648Z,98175.78
2022-11-16T18:41:11.814Z,98165.00
2022-11-16T18:43:56.423Z,98156.94
2022-11-16T18:46:26.504Z,98160.25
2022-11-16T18:48:53.547Z,98153.25
2022-11-16T18:51:21.320Z,98143.69
2022-11-16T18:53:49.691Z,98148.19
2022-11-16T18:56:17.354Z,98142.72
2022-11-16T18:58:50.330Z,98155.34
2022-11-16T19:01:19.758Z,98142.88
2022-11-16T19:03:46.498Z,98137.19
2022-11-16T19:06:14.882Z,98138.50
2022-11-16T19:08:42.314Z,98129.94
2022-11-16T19:11:14.475Z,98126.75
2022-11-16T19:13:42.490Z,98122.34
2022-11-16T19:16:11.028Z,98113.28
2022-11-16T19:18:38.450Z,98114.72
2022-11-16T19:21:10.776Z,98120.94
2022-11-16T19:23:42.982Z,98121.44
2022-11-16T19:26:12.260Z,98128.38
2022-11-16T19:28:40.487Z,98135.53
2022-11-16T19:31:12.680Z,98133.41
2022-11-16T19:33:39.396Z,98131.25
2022-11-16T19:36:11.411Z,98129.53
2022-11-16T19:38:38.564Z,98129.16
2022-11-16T19:41:06.352Z,98132.22
2022-11-16T19:43:33.976Z,98122.84
2022-11-16T19:46:13.232Z,98142.53
2022-11-16T19:48:50.355Z,98143.25
2022-11-16T19:51:18.435Z,98148.94
2022-11-16T19:54:37.374Z,98149.75
2022-11-16T19:57:52.310Z,98135.16
2022-11-16T20:00:49.346Z,98128.28
2022-11-16T20:04:03.812Z,98127.81
2022-11-16T20:06:52.046Z,98110.94
2022-11-16T20:09:38.239Z,98111.97
2022-11-16T20:12:59.054Z,98111.34
2022-11-16T20:15:26.326Z,98099.00
2022-11-16T20:18:08.908Z,98107.38
2022-11-16T20:20:42.383Z,98104.25
2022-11-16T20:23:14.452Z,98105.22
2022-11-16T20:25:41.615Z,98124.94
2022-11-16T20:28:17.675Z,98111.06
2022-11-16T20:31:01.126Z,98109.03
2022-11-16T20:33:36.186Z,98103.84
2022-11-16T20:36:08.938Z,98089.47
2022-11-16T20:38:41.472Z,98082.88
2022-11-16T20:41:48.206Z,98094.13
2022-11-16T20:44:41.024Z,98102.25
2022-11-16T20:47:34.281Z,98109.44
2022-11-16T20:50:19.710Z,98110.00
2022-11-16T20:53:17.557Z,98094.91
2022-11-16T20:56:04.050Z,98107.84
2022-11-16T20:58:34.926Z,98108.63
2022-11-16T21:01:41.550Z,98112.78
2022-11-16T21:04:32.026Z,98110.16
2022-11-16T21:07:02.217Z,98107.44
2022-11-16T21:09:52.223Z,98095.78
2022-11-16T21:12:42.614Z,98112.00
2022-11-16T21:15:17.586Z,98111.53
2022-11-16T21:18:08.427Z,98119.34
2022-11-16T21:20:48.825Z,98122.00
2022-11-16T21:23:36.616Z,98128.59
2022-11-16T21:26:30.235Z,98120.63
2022-11-16T21:29:11.891Z,98117.19
2022-11-16T21:32:04.779Z,98103.59
2022-11-16T21:34:40.098Z,98109.66
2022-11-16T21:37:12.750Z,98114.72
2022-11-16T21:39:51.107Z,98105.69
2022-11-16T21:42:29.492Z,98116.47
2022-11-16T21:45:08.616Z,98114.88
2022-11-16T21:47:47.243Z,98103.28
2022-11-16T21:50:31.177Z,98092.88
2022-11-16T21:53:04.122Z,98102.50
2022-11-16T21:55:51.734Z,98097.09
2022-11-16T21:58:18.808Z,98101.53
2022-11-16T22:00:56.769Z,98103.44
2022-11-16T22:03:37.580Z,98091.41
2022-11-16T22:06:52.959Z,98075.84
2022-11-16T22:09:38.248Z,98081.16
2022-11-16T22:12:13.868Z,98089.66
2022-11-16T22:14:43.610Z,98089.03
2022-11-16T22:17:21.800Z,98088.34
2022-11-16T22:19:55.040Z,98083.81
2022-11-16T22:22:38.314Z,98087.47
2022-11-16T22:25:22.643Z,98066.25
2022-11-16T22:28:19.618Z,98062.03
2022-11-16T22:30:52.187Z,98062.22
2022-11-16T22:33:27.838Z,98058.34
2022-11-16T22:36:21.328Z,98069.50
2022-11-16T22:39:09.402Z,98082.53
2022-11-16T22:42:02.559Z,98070.94
2022-11-16T22:44:38.540Z,98075.75
2022-11-16T22:47:14.564Z,98076.63
2022-11-16T22:49:56.130Z,98072.63
2022-11-16T22:52:53.814Z,98069.63
2022-11-16T22:55:21.008Z,98072.66
2022-11-16T22:57:51.244Z,98072.53
2022-11-16T23:00:21.651Z,98067.47
2022-11-16T23:02:55.443Z,98064.09
2022-11-16T23:05:22.949Z,98077.09
2022-11-16T23:07:59.525Z,98080.91
2022-11-16T23:10:55.677Z,98072.91
2022-11-16T23:13:43.869Z,98076.19
2022-11-16T23:16:14.305Z,98078.41
2022-11-16T23:19:09.429Z,98076.66
2022-11-16T23:21:57.774Z,98060.19
2022-11-16T23:24:45.763Z,98061.22
2022-11-16T23:27:34.198Z,98061.00
2022-11-16T23:30:13.310Z,98051.31
2022-11-16T23:32:48.231Z,98042.63
2022-11-16T23:35:18.259Z,98047.16
2022-11-16T23:38:17.381Z,98040.56
2022-11-16T23:40:44.474Z,98040.53
2022-11-16T23:43:40.511Z,98042.94
2022-11-16T23:46:16.957Z,98034.47
2022-11-16T23:49:09.498Z,98029.47
2022-11-16T23:51:36.591Z,98004.81
2022-11-16T23:54:11.940Z,98000.66
2022-11-16T23:56:47.864Z,98019.75
2022-11-16T23:59:20.417Z,98016.06
